Time;durP1;ratioP1;P1;durP2;ratioP2;P2;SDS_P1;SDS_P2;PMS_P1;PMS_P2;Temp;Humidity;BMP_temperature;BMP_pressure;BME280_temperature;BME280_humidity;BME280_pressure;Samples;Min_cycle;Max_cycle;Signal;HPM_P1;HPM_P2
2023/06/17 00:01:36;;;;;;;11.63;7.75;;;18.50;71.90;;;;;;5077177;28;20460;-71
2023/06/17 00:04:03;;;;;;;10.90;8.20;;;18.40;72.00;;;;;;5077329;28;20036;-71
2023/06/17 00:06:29;;;;;;;12.45;7.90;;;18.40;72.10;;;;;;5077265;28;20032;-71
2023/06/17 00:08:55;;;;;;;12.13;7.53;;;18.40;72.20;;;;;;5077207;28;20079;-71
2023/06/17 00:11:22;;;;;;;12.73;8.13;;;18.40;72.30;;;;;;5076981;28;20450;-71
2023/06/17 00:13:48;;;;;;;16.00;8.32;;;18.40;72.20;;;;;;5076526;28;20056;-72
2023/06/17 00:16:17;;;;;;;11.70;7.85;;;18.30;72.20;;;;;;5076562;28;20055;-72
2023/06/17 00:18:43;;;;;;;10.25;7.72;;;18.40;72.20;;;;;;5076736;28;20040;-72
2023/06/17 00:21:09;;;;;;;10.95;7.72;;;18.30;72.30;;;;;;5077337;28;20049;-72
2023/06/17 00:23:35;;;;;;;12.43;7.55;;;18.30;72.40;;;;;;5077286;28;20150;-71
2023/06/17 00:26:01;;;;;;;13.65;8.23;;;18.30;72.50;;;;;;5076960;28;20059;-72
2023/06/17 00:28:27;;;;;;;11.68;9.02;;;18.30;72.60;;;;;;5076791;28;20027;-72
2023/06/17 00:30:53;;;;;;;16.52;9.20;;;18.30;72.70;;;;;;5076612;28;20025;-72
2023/06/17 00:33:19;;;;;;;10.05;7.60;;;18.30;72.80;;;;;;5077025;28;20052;-72
2023/06/17 00:35:45;;;;;;;10.23;7.82;;;18.30;72.80;;;;;;5076147;28;20369;-72
2023/06/17 00:38:11;;;;;;;10.10;7.78;;;18.20;72.50;;;;;;5076925;28;20073;-73
2023/06/17 00:40:37;;;;;;;10.35;8.25;;;18.20;72.60;;;;;;5058903;28;20025;-72
2023/06/17 00:43:03;;;;;;;10.90;7.97;;;18.10;72.80;;;;;;5076861;28;20060;-72
2023/06/17 00:45:29;;;;;;;11.00;7.75;;;18.10;72.70;;;;;;5076717;28;20028;-72
2023/06/17 00:47:55;;;;;;;11.15;8.20;;;18.10;72.70;;;;;;5076417;28;20028;-72
2023/06/17 00:50:22;;;;;;;10.13;7.93;;;18.10;72.70;;;;;;5076175;28;20036;-71
2023/06/17 00:52:54;;;;;;;12.52;8.38;;;18.00;72.80;;;;;;5076414;28;20027;-71
2023/06/17 00:55:21;;;;;;;11.00;7.72;;;18.00;72.80;;;;;;5076262;28;20056;-72
2023/06/17 00:57:47;;;;;;;13.98;10.15;;;17.90;72.90;;;;;;5076249;28;20028;-72
2023/06/17 01:00:14;;;;;;;11.63;8.15;;;18.00;72.90;;;;;;5076518;28;20055;-72
2023/06/17 01:02:43;;;;;;;13.18;8.07;;;18.10;72.90;;;;;;5076222;28;20036;-72
2023/06/17 01:05:12;;;;;;;13.20;7.97;;;18.00;72.90;;;;;;5076045;28;20021;-72
2023/06/17 01:08:19;;;;;;;9.88;7.45;;;18.00;72.80;;;;;;5075775;28;20024;-72
2023/06/17 01:11:02;;;;;;;11.00;7.80;;;18.00;72.90;;;;;;5075753;28;20050;-72
2023/06/17 01:13:28;;;;;;;10.77;7.85;;;18.00;72.90;;;;;;5076139;28;20043;-73
2023/06/17 01:15:55;;;;;;;11.63;8.50;;;17.90;72.90;;;;;;5075582;28;20400;-72
2023/06/17 01:18:22;;;;;;;10.82;8.10;;;17.90;73.10;;;;;;5075648;28;20044;-72
2023/06/17 01:20:53;;;;;;;12.15;8.82;;;17.90;73.00;;;;;;5076139;28;20422;-72
2023/06/17 01:23:21;;;;;;;11.90;8.07;;;17.90;73.00;;;;;;5075814;28;20031;-72
2023/06/17 01:25:47;;;;;;;14.32;9.50;;;17.80;73.00;;;;;;5075232;28;20354;-72
2023/06/17 01:28:19;;;;;;;12.70;8.57;;;17.80;73.20;;;;;;5075341;28;20021;-71
2023/06/17 01:30:54;;;;;;;12.18;8.68;;;17.80;73.10;;;;;;5075429;28;20032;-71
2023/06/17 01:33:21;;;;;;;10.30;8.25;;;17.80;73.20;;;;;;5059115;28;20036;-72
2023/06/17 01:35:55;;;;;;;16.52;9.77;;;17.70;73.20;;;;;;5075056;28;20139;-72
2023/06/17 01:38:29;;;;;;;14.50;9.30;;;17.70;73.20;;;;;;5075256;28;20020;-72
2023/06/17 01:40:59;;;;;;;;;;;17.70;73.30;;;;;;5076378;28;20334;-72
2023/06/17 01:43:27;;;;;;;11.75;8.93;;;17.60;74.10;;;;;;5075566;28;19932;-72
2023/06/17 01:45:55;;;;;;;12.98;9.45;;;17.60;73.40;;;;;;5075155;28;20029;-72
2023/06/17 01:48:22;;;;;;;14.45;10.43;;;17.60;73.50;;;;;;5075128;28;20028;-72
2023/06/17 01:50:48;;;;;;;12.10;8.75;;;17.50;73.60;;;;;;5075484;28;20024;-71
2023/06/17 01:53:14;;;;;;;13.80;8.70;;;17.50;73.50;;;;;;5075085;28;20016;-71
2023/06/17 01:55:39;;;;;;;16.15;10.43;;;17.60;73.50;;;;;;5075062;28;20099;-71
2023/06/17 01:58:05;;;;;;;13.85;10.13;;;17.50;73.50;;;;;;5075030;28;20377;-71
2023/06/17 02:00:31;;;;;;;17.45;12.52;;;17.50;73.70;;;;;;5075070;28;20032;-71
2023/06/17 02:02:57;;;;;;;13.18;9.27;;;17.50;74.00;;;;;;5075560;28;20021;-71
2023/06/17 02:05:23;;;;;;;12.35;8.73;;;17.40;73.90;;;;;;5075457;28;20437;-71
2023/06/17 02:07:52;;;;;;;12.07;8.52;;;17.40;73.60;;;;;;5074954;28;20099;-72
2023/06/17 02:10:18;;;;;;;14.30;9.30;;;17.40;73.50;;;;;;5074860;28;20029;-72
2023/06/17 02:12:44;;;;;;;12.35;9.07;;;17.40;73.70;;;;;;5075422;28;20031;-72
2023/06/17 02:15:11;;;;;;;12.15;8.10;;;17.30;73.50;;;;;;5075096;28;20357;-72
2023/06/17 02:17:37;;;;;;;15.10;11.07;;;17.30;73.40;;;;;;5074886;28;20024;-72
2023/06/17 02:20:06;;;;;;;17.23;13.45;;;17.20;73.70;;;;;;5075116;28;20410;-72
2023/06/17 02:22:32;;;;;;;19.38;13.50;;;17.20;74.70;;;;;;5075359;28;20020;-72
2023/06/17 02:24:58;;;;;;;17.50;12.50;;;17.10;75.10;;;;;;5074851;28;20081;-71
2023/06/17 02:27:24;;;;;;;15.80;10.48;;;17.10;74.60;;;;;;5074675;28;20033;-71
2023/06/17 02:29:50;;;;;;;12.45;9.57;;;17.00;74.60;;;;;;5074747;28;20335;-72
2023/06/17 02:32:16;;;;;;;12.70;8.25;;;16.90;74.20;;;;;;5074734;28;20079;-72
2023/06/17 02:34:43;;;;;;;13.20;9.13;;;17.00;74.10;;;;;;5074500;28;20068;-72
2023/06/17 02:37:10;;;;;;;16.38;10.65;;;16.90;74.20;;;;;;5074549;28;20362;-72
2023/06/17 02:39:36;;;;;;;12.48;8.68;;;16.90;74.20;;;;;;5078700;28;20031;-72
2023/06/17 02:42:03;;;;;;;10.75;8.60;;;16.90;74.20;;;;;;5078665;28;20025;-72
2023/06/17 02:44:28;;;;;;;13.05;8.00;;;16.90;74.40;;;;;;5078537;28;20429;-72
2023/06/17 02:46:54;;;;;;;13.68;9.02;;;16.90;74.10;;;;;;5078395;28;20091;-73
2023/06/17 02:49:20;;;;;;;14.57;9.07;;;16.90;73.90;;;;;;5078480;28;20028;-73
2023/06/17 02:51:47;;;;;;;12.73;8.30;;;16.90;73.90;;;;;;5078454;28;20024;-72
2023/06/17 02:54:13;;;;;;;12.10;8.85;;;16.90;73.90;;;;;;5078333;28;20040;-72
2023/06/17 02:56:39;;;;;;;13.80;8.35;;;16.90;74.10;;;;;;5060616;28;20021;-72
2023/06/17 02:59:08;;;;;;;12.73;9.10;;;16.80;74.20;;;;;;5078322;28;20074;-72
2023/06/17 03:01:42;;;;;;;14.40;8.70;;;16.80;74.20;;;;;;5078167;28;20104;-72
2023/06/17 03:04:10;;;;;;;11.52;8.27;;;16.80;74.30;;;;;;5078209;28;20119;-72
2023/06/17 03:06:41;;;;;;;13.02;9.02;;;16.80;74.20;;;;;;5078309;28;20029;-72
2023/06/17 03:09:08;;;;;;;12.68;9.00;;;16.80;74.20;;;;;;5078020;28;20055;-72
2023/06/17 03:11:35;;;;;;;11.65;7.30;;;16.80;74.10;;;;;;5078805;28;20053;-72
2023/06/17 03:14:01;;;;;;;11.68;8.02;;;16.80;74.20;;;;;;5078048;28;20024;-71
2023/06/17 03:16:31;;;;;;;9.98;7.15;;;16.80;74.10;;;;;;5060259;28;20017;-72
2023/06/17 03:18:58;;;;;;;12.27;7.97;;;16.70;74.10;;;;;;5078221;28;20354;-72
2023/06/17 03:21:29;;;;;;;13.68;8.82;;;16.70;74.20;;;;;;5077843;28;20085;-72
2023/06/17 03:23:58;;;;;;;11.93;7.68;;;16.70;74.10;;;;;;5078152;28;20047;-72
2023/06/17 03:26:25;;;;;;;11.40;7.07;;;16.70;74.20;;;;;;5077876;28;20103;-72
2023/06/17 03:28:53;;;;;;;13.43;8.05;;;16.60;74.30;;;;;;5077941;28;20075;-72
2023/06/17 03:31:21;;;;;;;12.88;7.65;;;16.60;74.20;;;;;;5077698;28;20055;-72
2023/06/17 03:33:53;;;;;;;12.10;7.90;;;16.70;74.20;;;;;;5077903;28;20031;-72
2023/06/17 03:36:24;;;;;;;12.10;7.72;;;16.70;74.20;;;;;;5078251;28;20048;-72
2023/06/17 03:38:50;;;;;;;12.10;8.10;;;16.70;74.20;;;;;;5077582;28;20032;-72
2023/06/17 03:41:17;;;;;;;9.70;6.88;;;16.70;74.20;;;;;;5077775;28;20078;-72
2023/06/17 03:43:43;;;;;;;10.88;6.75;;;16.70;74.20;;;;;;5077734;28;20029;-72
2023/06/17 03:46:09;;;;;;;10.55;7.13;;;16.80;74.10;;;;;;5077593;28;20024;-72
2023/06/17 03:48:35;;;;;;;12.02;7.90;;;16.80;74.10;;;;;;5077139;28;20025;-72
2023/06/17 03:51:02;;;;;;;10.85;7.70;;;16.80;73.90;;;;;;5076559;28;20032;-72
2023/06/17 03:53:29;;;;;;;10.60;7.30;;;16.80;73.90;;;;;;5077337;28;20039;-72
2023/06/17 03:55:55;;;;;;;10.55;7.30;;;16.90;73.90;;;;;;5077243;28;20017;-74
2023/06/17 03:58:21;;;;;;;13.57;8.00;;;16.90;73.70;;;;;;5077215;28;20518;-74
2023/06/17 04:00:47;;;;;;;11.50;7.03;;;16.90;73.50;;;;;;5077242;28;20024;-74
2023/06/17 04:03:14;;;;;;;9.90;7.25;;;16.90;73.50;;;;;;5077065;28;20377;-74
2023/06/17 04:05:42;;;;;;;14.98;7.70;;;17.00;73.50;;;;;;5077452;28;20039;-74
2023/06/17 04:08:08;;;;;;;13.23;9.30;;;17.00;73.30;;;;;;5076887;28;20063;-74
2023/06/17 04:10:41;;;;;;;10.43;7.30;;;17.00;73.30;;;;;;5077288;28;20028;-74
2023/06/17 04:13:07;;;;;;;10.02;7.47;;;17.00;73.30;;;;;;5077536;28;20063;-74
2023/06/17 04:15:33;;;;;;;9.50;7.22;;;17.10;73.30;;;;;;5076855;28;20067;-74
2023/06/17 04:17:58;;;;;;;12.60;8.80;;;17.20;73.30;;;;;;5077364;28;20032;-74
2023/06/17 04:20:25;;;;;;;10.85;7.50;;;17.30;73.40;;;;;;5076829;28;20024;-74
2023/06/17 04:22:51;;;;;;;8.70;6.35;;;17.40;73.10;;;;;;5076728;28;20063;-74
2023/06/17 04:25:20;;;;;;;11.90;7.35;;;17.50;72.80;;;;;;5076659;28;20021;-74
2023/06/17 04:27:53;;;;;;;12.57;7.68;;;17.60;72.40;;;;;;5076521;28;20040;-74
2023/06/17 04:30:19;;;;;;;11.80;8.52;;;17.80;72.10;;;;;;5077496;28;20029;-74
2023/06/17 04:32:45;;;;;;;11.90;7.68;;;17.90;72.20;;;;;;5076880;28;20437;-74
2023/06/17 04:35:18;;;;;;;10.75;7.60;;;18.10;72.00;;;;;;5076269;28;20059;-74
2023/06/17 04:37:53;;;;;;;14.38;7.95;;;18.40;71.60;;;;;;5076481;28;20040;-74
2023/06/17 04:40:24;;;;;;;10.25;6.95;;;18.60;71.40;;;;;;5076703;28;20032;-74
2023/06/17 04:42:51;;;;;;;10.88;7.95;;;18.80;70.90;;;;;;5076366;28;20032;-74
2023/06/17 04:45:18;;;;;;;12.63;7.75;;;19.10;70.60;;;;;;5076791;28;20091;-74
2023/06/17 04:47:44;;;;;;;10.43;7.65;;;19.30;70.10;;;;;;5076702;28;20426;-74
2023/06/17 04:50:12;;;;;;;12.75;7.50;;;19.50;69.90;;;;;;5076218;28;20024;-74
2023/06/17 04:52:42;;;;;;;12.88;7.88;;;19.90;70.00;;;;;;5076076;28;20104;-74
2023/06/17 04:55:13;;;;;;;11.82;6.75;;;20.60;69.40;;;;;;5075962;28;20025;-74
2023/06/17 04:57:41;;;;;;;12.30;8.05;;;21.60;67.90;;;;;;5076636;28;20095;-74
2023/06/17 05:00:10;;;;;;;10.90;7.70;;;22.70;65.70;;;;;;5075691;28;20481;-74
2023/06/17 05:02:37;;;;;;;12.32;6.45;;;23.80;63.30;;;;;;5075829;28;20029;-74
2023/06/17 05:05:03;;;;;;;9.55;6.22;;;24.80;61.30;;;;;;5058384;28;20450;-74
2023/06/17 05:07:29;;;;;;;8.35;5.88;;;25.70;59.20;;;;;;5075978;28;20033;-74
2023/06/17 05:09:55;;;;;;;8.68;5.80;;;26.50;57.00;;;;;;5075808;28;20108;-73
2023/06/17 05:12:21;;;;;;;12.88;5.30;;;27.40;55.00;;;;;;5076058;28;20055;-73
2023/06/17 05:14:47;;;;;;;8.40;5.32;;;28.10;53.60;;;;;;5075868;28;20384;-73
2023/06/17 05:17:13;;;;;;;8.60;5.57;;;28.80;52.10;;;;;;5075863;28;20075;-73
2023/06/17 05:19:39;;;;;;;7.60;5.82;;;29.50;50.20;;;;;;5076148;28;20476;-74
2023/06/17 05:22:06;;;;;;;7.80;5.40;;;30.20;48.60;;;;;;5075625;28;20032;-74
2023/06/17 05:24:32;;;;;;;10.25;6.03;;;30.70;47.00;;;;;;5075554;28;20342;-73
2023/06/17 05:26:57;;;;;;;6.93;4.97;;;31.20;45.80;;;;;;5075654;28;20027;-74
2023/06/17 05:29:23;;;;;;;6.30;4.32;;;31.70;44.90;;;;;;5075426;28;20377;-74
2023/06/17 05:31:49;;;;;;;7.15;4.70;;;32.40;43.70;;;;;;5075500;28;20048;-73
2023/06/17 05:34:15;;;;;;;7.97;5.00;;;33.20;42.50;;;;;;5075248;28;20048;-74
2023/06/17 05:36:41;;;;;;;6.70;5.20;;;33.90;41.40;;;;;;5075686;28;20067;-74
2023/06/17 05:39:07;;;;;;;7.38;4.85;;;34.50;40.40;;;;;;5075873;28;20074;-74
2023/06/17 05:41:34;;;;;;;6.55;4.63;;;35.10;39.60;;;;;;5075545;28;20044;-74
2023/06/17 05:44:00;;;;;;;9.02;4.90;;;35.70;38.70;;;;;;5075298;28;20032;-74
2023/06/17 05:46:26;;;;;;;6.47;4.18;;;36.40;38.00;;;;;;5075219;28;20021;-74
2023/06/17 05:48:52;;;;;;;7.03;4.40;;;36.90;37.40;;;;;;5075432;28;20074;-74
2023/06/17 05:51:18;;;;;;;6.22;4.22;;;37.40;36.80;;;;;;5075217;28;20048;-74
2023/06/17 05:53:44;;;;;;;6.00;4.03;;;38.00;36.00;;;;;;5075148;28;20394;-74
2023/06/17 05:56:10;;;;;;;6.22;4.57;;;38.50;35.30;;;;;;5075359;28;20055;-74
2023/06/17 05:58:37;;;;;;;5.80;4.28;;;38.80;34.60;;;;;;5075430;28;20100;-73
2023/06/17 06:01:03;;;;;;;7.13;4.47;;;39.10;34.20;;;;;;5075097;28;20028;-74
2023/06/17 06:03:29;;;;;;;5.63;4.15;;;39.30;33.80;;;;;;5058039;28;20410;-74
2023/06/17 06:05:55;;;;;;;6.32;4.18;;;39.50;33.40;;;;;;5074969;28;20103;-74
2023/06/17 06:08:21;;;;;;;6.45;4.95;;;39.70;33.00;;;;;;5075480;28;20024;-74
2023/06/17 06:10:47;;;;;;;4.90;4.03;;;40.00;32.40;;;;;;5057343;28;20076;-74
2023/06/17 06:13:13;;;;;;;7.47;4.47;;;40.40;31.80;;;;;;5074429;28;20476;-74
2023/06/17 06:15:39;;;;;;;6.90;4.68;;;40.90;31.00;;;;;;5074892;28;20035;-74
2023/06/17 06:18:05;;;;;;;7.43;4.53;;;41.40;30.50;;;;;;5074931;28;20346;-74
2023/06/17 06:20:31;;;;;;;7.32;4.38;;;41.80;30.10;;;;;;5074792;28;20048;-74
2023/06/17 06:22:58;;;;;;;7.05;4.22;;;42.00;29.50;;;;;;5075637;28;20028;-74
2023/06/17 06:25:24;;;;;;;7.57;5.32;;;42.40;29.00;;;;;;5075009;28;20052;-74
2023/06/17 06:27:50;;;;;;;7.03;4.45;;;42.70;28.30;;;;;;5074766;28;20452;-74
2023/06/17 06:30:16;;;;;;;10.40;4.80;;;43.00;27.60;;;;;;5075043;28;20025;-74
2023/06/17 06:32:42;;;;;;;6.90;4.60;;;43.40;27.00;;;;;;5074789;28;20029;-74
2023/06/17 06:35:08;;;;;;;7.00;4.57;;;43.70;26.50;;;;;;5074749;28;20488;-73
2023/06/17 06:37:34;;;;;;;6.70;4.80;;;43.60;26.10;;;;;;5075031;28;20052;-74
2023/06/17 06:40:01;;;;;;;6.25;4.63;;;43.00;26.10;;;;;;5074721;28;20047;-74
2023/06/17 06:42:27;;;;;;;8.07;4.82;;;41.80;26.70;;;;;;5074687;28;20024;-74
2023/06/17 06:44:53;;;;;;;8.80;4.65;;;40.30;27.70;;;;;;5056949;28;20108;-74
2023/06/17 06:47:19;;;;;;;7.13;5.00;;;38.70;29.00;;;;;;5074520;28;20048;-74
2023/06/17 06:49:44;;;;;;;7.93;4.88;;;37.10;30.50;;;;;;5074822;28;20305;-74
2023/06/17 06:52:11;;;;;;;7.03;4.72;;;35.80;32.10;;;;;;5074612;28;20052;-74
2023/06/17 06:54:37;;;;;;;7.40;4.45;;;34.60;33.40;;;;;;5075059;28;20027;-73
2023/06/17 06:57:03;;;;;;;7.13;4.70;;;33.70;34.70;;;;;;5074465;28;20016;-73
2023/06/17 06:59:29;;;;;;;6.45;4.50;;;32.90;35.50;;;;;;5074783;28;20032;-73
2023/06/17 07:01:55;;;;;;;7.20;4.82;;;32.30;36.40;;;;;;5075533;28;20028;-73
2023/06/17 07:04:21;;;;;;;7.03;4.70;;;31.70;37.10;;;;;;5074450;28;20461;-73
2023/06/17 07:06:47;;;;;;;8.00;4.68;;;31.30;37.80;;;;;;5074372;28;20099;-73
2023/06/17 07:09:13;;;;;;;7.85;4.40;;;30.90;38.30;;;;;;5074387;28;20024;-73
2023/06/17 07:11:39;;;;;;;6.30;4.35;;;30.70;38.80;;;;;;5074432;28;20025;-73
2023/06/17 07:14:06;;;;;;;8.35;5.15;;;30.60;39.00;;;;;;5074412;28;20540;-73
2023/06/17 07:16:32;;;;;;;7.82;5.00;;;30.40;39.40;;;;;;5074309;28;20036;-73
2023/06/17 07:18:58;;;;;;;6.90;4.25;;;30.30;39.80;;;;;;5074340;28;20100;-73
2023/06/17 07:21:24;;;;;;;7.78;4.90;;;30.40;39.80;;;;;;5074372;28;20441;-73
2023/06/17 07:23:51;;;;;;;8.35;4.95;;;30.40;39.80;;;;;;5075802;28;20064;-73
2023/06/17 07:26:17;;;;;;;8.82;5.50;;;30.50;39.70;;;;;;5077831;28;20402;-73
2023/06/17 07:28:43;;;;;;;6.45;4.65;;;30.40;39.80;;;;;;5077754;28;20468;-73
2023/06/17 07:31:09;;;;;;;6.65;5.05;;;30.40;40.10;;;;;;5078069;28;20445;-73
2023/06/17 07:33:35;;;;;;;7.95;5.07;;;30.30;40.10;;;;;;5077694;28;20031;-73
2023/06/17 07:36:01;;;;;;;8.20;5.22;;;30.10;40.30;;;;;;5077518;28;20056;-73
2023/06/17 07:38:27;;;;;;;10.35;5.70;;;29.90;40.70;;;;;;5077875;28;20362;-73
2023/06/17 07:40:53;;;;;;;8.38;6.00;;;29.90;41.10;;;;;;5077847;28;20111;-73
2023/06/17 07:43:18;;;;;;;11.77;6.45;;;29.90;40.90;;;;;;5077881;28;20032;-73
2023/06/17 07:45:44;;;;;;;9.27;6.60;;;29.80;41.10;;;;;;5077850;28;20481;-73
2023/06/17 07:48:11;;;;;;;10.55;6.38;;;29.70;41.30;;;;;;5077456;28;20031;-73
2023/06/17 07:50:37;;;;;;;8.55;6.03;;;29.60;41.60;;;;;;5077345;28;20354;-73
2023/06/17 07:53:03;;;;;;;9.80;6.03;;;29.60;42.10;;;;;;5077918;28;20028;-73
2023/06/17 07:55:29;;;;;;;7.90;5.78;;;29.70;42.10;;;;;;5077527;28;20456;-73
2023/06/17 07:57:55;;;;;;;10.32;7.57;;;29.60;42.10;;;;;;5077818;28;20025;-73
2023/06/17 08:00:21;;;;;;;12.65;8.52;;;29.70;42.50;;;;;;5077745;28;20123;-73
2023/06/17 08:02:47;;;;;;;11.10;7.05;;;29.60;42.60;;;;;;5077282;28;20439;-73
2023/06/17 08:05:13;;;;;;;9.73;6.60;;;29.40;42.40;;;;;;5077623;28;20036;-73
2023/06/17 08:07:39;;;;;;;9.52;6.95;;;29.30;42.70;;;;;;5077111;28;20364;-73
2023/06/17 08:10:06;;;;;;;9.98;6.90;;;29.40;43.10;;;;;;5077113;28;20039;-73
2023/06/17 08:12:32;;;;;;;10.93;5.88;;;29.50;43.20;;;;;;5076911;28;20025;-73
2023/06/17 08:14:58;;;;;;;12.75;7.60;;;29.50;43.00;;;;;;5076967;28;20028;-73
2023/06/17 08:17:24;;;;;;;9.23;6.50;;;29.60;43.10;;;;;;5077093;28;20020;-73
2023/06/17 08:19:50;;;;;;;8.85;6.50;;;29.60;42.90;;;;;;5076916;28;20028;-73
2023/06/17 08:22:16;;;;;;;9.00;6.47;;;29.70;42.80;;;;;;5076752;28;20111;-73
2023/06/17 08:24:42;;;;;;;10.48;7.90;;;29.80;42.60;;;;;;5077009;28;20074;-73
2023/06/17 08:27:09;;;;;;;13.05;8.18;;;29.70;42.50;;;;;;5077132;28;20021;-73
2023/06/17 08:29:35;;;;;;;10.60;6.53;;;29.60;42.30;;;;;;5076676;28;20063;-73
2023/06/17 08:32:01;;;;;;;9.95;6.88;;;29.70;42.50;;;;;;5076576;28;20024;-73
2023/06/17 08:34:30;;;;;;;10.73;6.72;;;29.70;42.70;;;;;;5076392;28;20045;-73
2023/06/17 08:36:56;;;;;;;13.60;7.30;;;29.80;42.50;;;;;;5075675;28;20020;-73
2023/06/17 08:39:22;;;;;;;9.93;6.47;;;29.90;42.50;;;;;;5076430;28;20025;-73
2023/06/17 08:41:49;;;;;;;9.68;7.35;;;29.90;42.20;;;;;;5076991;28;20028;-73
2023/06/17 08:44:17;;;;;;;13.15;8.23;;;30.00;42.00;;;;;;5076867;28;20095;-73
2023/06/17 08:46:45;;;;;;;8.45;6.30;;;29.90;41.20;;;;;;5076307;28;20020;-73
2023/06/17 08:49:14;;;;;;;8.93;5.90;;;29.80;41.40;;;;;;5058628;28;20495;-73
2023/06/17 08:51:42;;;;;;;8.52;5.95;;;29.70;41.30;;;;;;5076265;28;20021;-73
2023/06/17 08:54:09;;;;;;;8.35;5.80;;;29.70;41.90;;;;;;5076699;28;20047;-73
2023/06/17 08:56:36;;;;;;;12.27;8.75;;;29.80;41.80;;;;;;5076284;28;20378;-73
2023/06/17 08:59:02;;;;;;;16.33;9.95;;;29.90;41.70;;;;;;5076089;28;20032;-74
2023/06/17 09:01:28;;;;;;;11.52;7.45;;;29.80;41.40;;;;;;5076060;28;20031;-74
2023/06/17 09:03:55;;;;;;;8.75;5.90;;;29.50;41.60;;;;;;5075923;28;20032;-73
2023/06/17 09:06:27;;;;;;;10.77;7.65;;;29.50;42.10;;;;;;5075871;28;20025;-74
2023/06/17 09:08:55;;;;;;;9.30;6.57;;;29.50;42.30;;;;;;5076043;28;20350;-74
2023/06/17 09:11:30;;;;;;;10.18;6.47;;;29.60;42.10;;;;;;5075826;28;20501;-74
2023/06/17 09:13:59;;;;;;;7.93;5.70;;;29.60;42.30;;;;;;5075894;28;20025;-74
2023/06/17 09:16:29;;;;;;;10.07;7.18;;;29.70;41.70;;;;;;5075712;28;20075;-74
2023/06/17 09:18:57;;;;;;;8.55;5.78;;;29.60;41.00;;;;;;5058219;28;20028;-74
2023/06/17 09:21:24;;;;;;;7.47;5.25;;;29.50;41.40;;;;;;5058674;28;20017;-74
2023/06/17 09:24:00;;;;;;;6.82;5.18;;;29.60;41.50;;;;;;5058042;28;20025;-73
2023/06/17 09:26:33;;;;;;;6.85;5.00;;;29.60;41.50;;;;;;5075719;28;20021;-74
2023/06/17 09:29:01;;;;;;;7.57;5.20;;;29.70;41.50;;;;;;5075888;28;20021;-73
2023/06/17 09:31:28;;;;;;;6.82;5.05;;;29.80;41.30;;;;;;5075508;28;20028;-73
2023/06/17 09:33:56;;;;;;;8.80;5.30;;;29.80;40.80;;;;;;5075439;28;20079;-73
2023/06/17 09:36:25;;;;;;;7.43;4.75;;;29.70;40.50;;;;;;5075197;28;20055;-73
2023/06/17 09:38:52;;;;;;;7.95;5.10;;;29.60;40.50;;;;;;5075669;28;20089;-74
2023/06/17 09:41:20;;;;;;;6.53;4.25;;;29.60;40.50;;;;;;5075322;28;20035;-73
2023/06/17 09:43:53;;;;;;;8.80;4.88;;;29.60;40.40;;;;;;5075316;28;20037;-74
2023/06/17 09:46:35;;;;;;;6.55;4.00;;;29.70;40.10;;;;;;5075221;28;20020;-74
2023/06/17 09:49:07;;;;;;;8.35;4.45;;;29.80;40.10;;;;;;5075107;28;20048;-73
2023/06/17 09:51:38;;;;;;;7.55;4.93;;;29.90;40.10;;;;;;5075576;28;20048;-74
2023/06/17 09:54:08;;;;;;;8.25;5.13;;;29.90;40.00;;;;;;5058445;28;20048;-74
2023/06/17 09:56:35;;;;;;;6.80;4.60;;;29.90;39.60;;;;;;5075386;28;20012;-74
2023/06/17 09:59:09;;;;;;;7.40;4.60;;;29.80;39.30;;;;;;5075185;28;20036;-74
2023/06/17 10:01:39;;;;;;;7.07;4.68;;;29.70;39.40;;;;;;5075703;28;20021;-74
2023/06/17 10:04:07;;;;;;;5.00;3.72;;;29.70;39.70;;;;;;5075326;28;20024;-74
2023/06/17 10:06:39;;;;;;;6.03;4.70;;;29.80;39.70;;;;;;5074939;28;20476;-74
2023/06/17 10:09:09;;;;;;;8.25;5.07;;;29.90;39.60;;;;;;5074955;28;20039;-71
2023/06/17 10:11:36;;;;;;;7.05;4.53;;;30.00;39.50;;;;;;5075053;28;20024;-74
2023/06/17 10:14:34;;;;;;;6.75;5.10;;;29.90;39.30;;;;;;5075030;28;20035;-74
2023/06/17 10:17:08;;;;;;;6.05;4.43;;;29.90;39.40;;;;;;5075134;28;20031;-71
2023/06/17 10:19:37;;;;;;;8.63;5.28;;;29.90;39.90;;;;;;5074925;28;20045;-71
2023/06/17 10:22:13;;;;;;;7.10;5.20;;;30.10;39.90;;;;;;5075157;28;20020;-71
2023/06/17 10:24:46;;;;;;;9.63;5.43;;;30.10;39.60;;;;;;5075505;28;20433;-74
2023/06/17 10:27:18;;;;;;;8.10;4.85;;;30.20;39.60;;;;;;5074828;28;20031;-71
2023/06/17 10:29:49;;;;;;;9.57;5.18;;;30.20;39.70;;;;;;5074887;28;20016;-72
2023/06/17 10:32:20;;;;;;;8.55;5.60;;;30.20;40.00;;;;;;5074799;28;20024;-71
2023/06/17 10:35:07;;;;;;;5.53;4.40;;;30.20;40.20;;;;;;5074826;28;20049;-71
2023/06/17 10:38:02;;;;;;;10.73;5.22;;;30.30;40.10;;;;;;5074743;28;20055;-70
2023/06/17 10:40:30;;;;;;;5.43;4.20;;;30.40;40.30;;;;;;4993710;28;20046;-72
2023/06/17 10:43:02;;;;;;;7.03;4.82;;;30.40;40.40;;;;;;4993721;28;20034;-71
2023/06/17 10:45:53;;;;;;;7.72;5.38;;;30.40;40.60;;;;;;4994062;28;20039;-71
2023/06/17 10:48:32;;;;;;;7.57;4.90;;;30.50;41.70;;;;;;4978945;28;20162;-71
2023/06/17 10:51:10;;;;;;;6.60;4.78;;;30.50;41.30;;;;;;4994096;28;20086;-71
2023/06/17 10:53:37;;;;;;;6.65;4.80;;;30.50;41.50;;;;;;4994211;28;20102;-71
2023/06/17 10:56:04;;;;;;;6.82;5.30;;;30.60;41.50;;;;;;4993602;28;20022;-71
2023/06/17 10:58:33;;;;;;;8.88;5.88;;;30.60;41.60;;;;;;4994222;28;20122;-71
2023/06/17 11:01:11;;;;;;;7.35;5.90;;;30.50;41.30;;;;;;4997321;28;20053;-71
2023/06/17 11:03:37;;;;;;;10.10;7.50;;;30.40;41.30;;;;;;4997353;28;20349;-72
2023/06/17 11:06:05;;;;;;;9.80;5.60;;;30.40;41.30;;;;;;4997423;28;20034;-71
2023/06/17 11:08:34;;;;;;;7.88;5.97;;;30.30;41.60;;;;;;4997676;28;20042;-70
2023/06/17 11:11:16;;;;;;;7.80;5.13;;;30.20;41.90;;;;;;4981363;28;20120;-70
2023/06/17 11:13:47;;;;;;;6.35;4.75;;;30.30;41.90;;;;;;4997443;28;20037;-70
2023/06/17 11:16:13;;;;;;;7.05;4.80;;;30.30;41.80;;;;;;5018048;28;20037;-70
2023/06/17 11:18:41;;;;;;;6.20;4.63;;;30.30;41.70;;;;;;5078112;28;20040;-70
2023/06/17 11:21:08;;;;;;;10.45;6.10;;;30.30;41.80;;;;;;5078072;28;20020;-71
2023/06/17 11:23:36;;;;;;;8.25;5.90;;;30.40;41.70;;;;;;5078237;28;20032;-71
2023/06/17 11:26:02;;;;;;;7.32;5.40;;;30.40;41.70;;;;;;5077777;28;20032;-71
2023/06/17 11:28:31;;;;;;;7.70;5.22;;;30.40;41.20;;;;;;5077770;28;20028;-71
2023/06/17 11:30:57;;;;;;;9.68;5.30;;;30.30;41.00;;;;;;5077878;28;20031;-70
2023/06/17 11:33:28;;;;;;;9.40;5.50;;;30.20;40.80;;;;;;5078071;28;20017;-73
2023/06/17 11:35:55;;;;;;;6.18;4.43;;;30.10;40.50;;;;;;5077581;28;20075;-73
2023/06/17 11:38:24;;;;;;;6.22;5.18;;;30.20;40.90;;;;;;5060791;28;20028;-73
2023/06/17 11:40:57;;;;;;;6.93;4.85;;;30.20;40.80;;;;;;5078231;28;20426;-73
2023/06/17 11:43:28;;;;;;;7.20;4.90;;;30.20;40.50;;;;;;5077635;28;20048;-73
2023/06/17 11:45:58;;;;;;;6.75;4.00;;;30.20;40.40;;;;;;5044615;28;20043;-73
2023/06/17 11:48:33;;;;;;;5.43;4.22;;;30.20;40.00;;;;;;5059787;28;20070;-73
2023/06/17 11:50:59;;;;;;;7.88;5.00;;;30.20;39.50;;;;;;5077503;28;20446;-73
2023/06/17 11:53:36;;;;;;;7.82;4.70;;;30.20;39.00;;;;;;5059917;28;20024;-73
2023/06/17 11:56:07;;;;;;;7.85;4.90;;;30.10;38.30;;;;;;5060334;28;20043;-73
2023/06/17 11:58:41;;;;;;;8.20;4.95;;;30.10;38.10;;;;;;5077273;28;20036;-73
2023/06/17 12:01:08;;;;;;;7.68;4.63;;;30.10;38.00;;;;;;5077211;28;20032;-74
2023/06/17 12:03:36;;;;;;;7.30;4.50;;;30.10;38.30;;;;;;5077278;28;20037;-73
2023/06/17 12:06:02;;;;;;;7.22;4.72;;;30.20;38.00;;;;;;5077434;28;20102;-73
2023/06/17 12:08:33;;;;;;;7.03;4.65;;;30.20;37.70;;;;;;5077373;28;20449;-73
2023/06/17 12:11:22;;;;;;;7.50;5.07;;;30.20;37.40;;;;;;5076228;28;20025;-73
2023/06/17 12:13:50;;;;;;;6.78;4.55;;;30.30;37.50;;;;;;5077385;28;20035;-73
2023/06/17 12:16:43;;;;;;;8.43;5.03;;;30.40;37.40;;;;;;5076892;28;20032;-73
2023/06/17 12:19:24;;;;;;;7.65;4.57;;;30.30;36.80;;;;;;5073398;28;20082;-73
2023/06/17 12:21:50;;;;;;;7.57;5.03;;;30.20;36.50;;;;;;5077713;28;20404;-70
2023/06/17 12:26:42;;;;;;;7.22;4.45;;;30.10;36.30;;;;;;5077006;28;20032;-71
2023/06/17 12:29:09;;;;;;;8.00;4.70;;;30.10;36.40;;;;;;5076968;28;20342;-70
2023/06/17 12:31:35;;;;;;;6.70;4.40;;;30.10;36.30;;;;;;5059337;28;20025;-70
2023/06/17 12:34:06;;;;;;;7.63;4.95;;;30.10;36.20;;;;;;5076896;28;20025;-71
2023/06/17 12:36:32;;;;;;;6.95;4.72;;;30.10;36.10;;;;;;5076810;28;20271;-70
2023/06/17 12:39:00;;;;;;;7.45;4.80;;;30.20;35.70;;;;;;5077072;28;20521;-71
2023/06/17 12:41:27;;;;;;;6.43;4.63;;;30.20;35.30;;;;;;5076462;28;20458;-72
2023/06/17 12:43:55;;;;;;;7.25;5.30;;;30.10;35.40;;;;;;5076444;28;20024;-71
2023/06/17 12:46:23;;;;;;;7.30;4.95;;;30.10;34.60;;;;;;5076360;28;20033;-71
2023/06/17 12:48:53;;;;;;;6.65;4.68;;;30.00;34.90;;;;;;5076222;28;20032;-70
2023/06/17 12:51:22;;;;;;;8.38;5.30;;;30.00;35.20;;;;;;5076140;28;20024;-70